Timeline UpdatesTrip UpdatesNews PostsPvt Posts♥♥Travel TipsAdmin PostsConv PostsFollowed PostsChat RequestsBlog PostsPNR Posts

Disclaimer
Search
 
 
Fri Oct 31, 2014 04:27:15 ISTHomeTrainsΣChainsAtlasPNRForumGalleryNewsFAQTripsMembersLoginFeedback
No Recent News for this Train
Other Trains in the News **new
Latest...
.
Fri Nov 22, 2013 (09:02AM)
⇐ Return Journey: Train# 17482

17481/Bilaspur-Tirupati Express

Time-Table HAS CHANGED.
Sep 03 2014 (5:30PM)
Change Departure Station:
Change Arrival Station:
Post a Train Travel TipPost a Train Travel Tip **new
Post a Comment/Question/Picture/VideoPost a Comment/Question/Picture/Video
Pantry/Catering
✕ NO Pantry Car
✓ Catering Avbl
Loco/Rake Reversals
R/Raipur Junction (6); VSKP/Visakhapatnam Junction (8);
RSA - Rake Sharing
Rake/Coach Composition
ENG-SLR-GS-GS-GS-S1-S2-S3-S4-S5-B1-GS-GS-GS-SLR (BSP-R & VSKP-TPTY); ENG-SLR-GS-GS-GS-B1-S5-S4-S3-S2-S1-GS-GS-GS-SLR (R-VSKP)
Loco
Loco Change at BZA frm Electric (WAM 4) to Diesel...
Read more...
(Dual WDP 1 frm BZA shed) and again frm Diesel (dual WDP 1 frm BZA shed) to Electric(WAM4 usually) at RJY and again from Electric(WAM4) to Diesel at VSKP.
News    PNR    Forum    Time-Table    Availability    Fare Chart    Map    Arr/Dep History    Trips    Gallery    ΣChains    X/O    Timeline    
Travel Time: 30h 30m    63 halts    Distance: 1403 km    Avg Speed: 46 km/hr
Type: Mail/Express
Zone: SCR/South Central
Departs @ 10:05 (Avg 5m late)
Platform# 6
  T   S
Bilaspur Junction/BSP 
Arrives @ 16:35 +1 night (Avg 19m late)
Platform# 4
S  W   
Tirupati Main/TPTY 

63 halts. 202 intermediate Stations between Bilaspur Junction and Tirupati Main

Show ALL intermediate Stations  Show Old Time-Table

#TrkCodeStation NameX/OArrivesAvgDepartsAvgHaltPFDay#KmSpeedElevZoneAddress
1/==/BSPBilaspur Junction (8)»  -10:05+5610.077271mSECRBilaspur, Chhattisgarh
2/==/BYTBhatapara (4)X  10:42 10:41+1310:43+131 2m--146.287270mSECRBanjari Road, Chhattisgarh
3/==/TLDTilda (3)  11:02 11:01+1411:03+151 2m--172.244 SECRBanjari Rd, Chhattisgarh
4/==/RRaipur Junction (6)11:55+812:15+1520m--1110.451297mSECRRaipur, Chhattisgarh
5|--|MSMDMahasamund  13:31 13:18+1413:32 13:20+151 2m--1164.056301mECoRMahasamund, Chhattisgarh
6|--|BGBRBagbahra  13:59 13:53+1214:00 13:55+151 2m--1194.642358mECoRBagbahra, Chhattisgarh
7|--|KRARKhariar Road  14:26 14:25+1414:27+211 2m--1215.663317mECoRJonk, Odisha
8|--|NPDNawapara Road  14:39 14:38+2114:40+211 2m--1227.288344mECoRNuapada District, Odisha
9|--|HSKHarishanker Road (2)  15:02 15:00+2415:03 15:02+271 2m--1256.777335mECoRPin Code:767038, Odisha
10|--|KBJKantabanji  15:25 15:20+2915:35 15:30+3110m--1279.943283mECoRBolangir, Odisha
11|-=%TIGTitlagarh Junction (3)X  16:15+2116:25+2310m--1312.464212mECoRTitlagarh, Odisha
12%==%KSNGKesinga (1)X  16:41 16:38+2516:42 16:40+251 2m11326.365183mECoRKesinga, Odisha
13%==%RPRDRupra Road  16:57 16:55+2416:58 16:57+241 2m--1342.550233mECoRKalahandi, Odisha
14%==%NRLRNorla Road  17:07 17:05+2317:08 17:07+261 2m--1349.265247mECoRKalahandi, Odisha
15%==%AMBAmbodala  17:34 17:30+2217:35 17:32+251 2m--1374.275374mECoRState Highway 6, Odisha
16%==%MNGDMuniguda  17:56 17:52+2617:57 17:54+271 2m--1399.147335mECoRMuniguda, Odisha
17%==%THVTherubaliX  18:34 18:40+1918:35 18:50+141 10m--1435.156270mECoRRayagada, Odisha
18%==%SPRDSingapuram Road (2)X  19:01 19:00+1719:02+171 2m--1444.543248mECoRJaykaypur, Odisha
19%==%RGDARayagada (3)  19:15+1419:25+1810m--1453.778229mECoRRayagada ph.no 06856-222407, Odisha
20%==%PVPTParvatipuram Town  20:01 20:00-20:02-1 2m--1499.033121mECoRParvatipuram, Andhra Pradesh
21%==%PVPParvatipuram (3)  20:06 20:05+2920:07+301 2m--1500.780122mECoRParvatipuram, Andhra Pradesh
22%==%VBLBobbili Junction (2)  20:25+3220:27+322m21524.652137mECoRBobbili, Andhra Pradesh
23%==%VZMVizianagaram Junction (5)  21:30+1421:35+175m--1578.87063mECoRVizianagaram, Andhra Pradesh
24/==/KTVKottavalasa Junction (5)  22:06 22:05+2222:07+221 2m--1613.86858mECoRVizianagaram District, Andhra Pradesh
25/==/SCMSimhachalam (2)  22:24 22:23+022:25+01 2m--1631.9927mECoRVisakhapatnam, Andhra Pradesh
26/==/VSKPVisakhapatnam Junction (8)X23:20-123:40+220m41640.03511mECoRVishakhapatnam 530001, Andhra Pradesh
27/==/DVDDuvvada (4)  00:09 00:08+800:10+81 2m12656.35346mECoRVishakhapatnam District, Andhra Pradesh
28/==/AKPAnakapalle (3)  00:28+1400:29+151m22672.35930mSCRAnakapalle ph.no . 08924-221698, Andhra Pradesh
29/==/YLMElamanchili (2)  00:53+1200:54+131m--2696.010423mSCRVisakhapatnam District, Andhra Pradesh
30/==/TUNITuni (2)  01:17+2101:18+211m12736.17124mSCRTuni ph.no. 08854-252172, Andhra Pradesh
31/==/ANVAnnavaram (3)X  01:32+2501:33+251m12752.88327mSCREast Godavari District, Andhra Pradesh
32/==/PAPPithapuram (2)  01:51+2701:52+271m--2777.55622mSCREast Godavari District, Andhra Pradesh
33/==/SLOSamalkot Junction (3)X  02:05+2102:06+221m32789.68418mSCRSamalkot, Andhra Pradesh
34/==/APTAnaparti (3)X  02:25+3102:26+321m--2816.14521mSCREast Godavari District, Andhra Pradesh
35/==/DWPDwarapudi (3)  02:31+3202:32+321m--2819.93120mSCREast Godavari District, Andhra Pradesh
36/==/RJYRajahmundry (3)X  03:10+1903:25+2315m12839.83623mSCRRajahmundry ph.no. 0883-2420541, Andhra Pradesh
37/==/KVRKovvur (3)  03:38+2803:39+291m32847.64325mSCRWest Godavari, Andhra Pradesh
38/==/NDDNidadavolu Junction (3)  03:59+2404:00+251m22862.05420mSCRNidadavolu jtn ph.no. 08813-210325, Andhra Pradesh
39|--|TNKUTanuku (2)  04:19+2704:20+291m--2879.15312mSCR131, Andhra Pradesh
40|--|ALAttili (1)  04:32+3104:33+331m12889.74214mSCRWest Godavari, Andhra Pradesh
41|--|BVRTBhimavaram Town (2)X  05:01+3005:02+321m12909.5488mSCRBhimavaram, Andhra Pradesh
42|--|AKVDAkividu (3)X  05:24+3205:25+391m--2927.2485mSCRCoast Andhra, Andhra Pradesh
43|--|KKLRKaikaluru (2)X  05:46+4405:47+471m--2943.8348mSCRKaikalur, Andhra Pradesh
44|--|GDVGudivada Junction (3)X  06:39+4006:40+411m--2973.13211mSCRKrishna District, Andhra Pradesh
45|--|BZAVijayawada Junction (10)  08:00+2908:20+2520m--21016.35624mSCRVijayawada 520001, Andhra Pradesh
46/==/DIGDuggirala (3)  08:43+3008:44+341m--21037.86516mSCRDuggirala, Andhra Pradesh
47/==/TELTenali Junction (5)  08:53+3508:54+391m321047.56616mSCRTel: 08644-227834, Andhra Pradesh
48/==/NDONidubrolu (3)X  09:14+4009:15+421m--21069.6659mSCRNidubrolu, Andhra Pradesh
49/==/BPPBapatla (3)  09:34+4109:35+421m--21090.17510mSCRBapatla, Andhra Pradesh
50/==/CLXChirala (4)  09:47+3809:48+401m--21105.2528mSCRChirala, Andhra Pradesh
51/==/VTMVetapalem (3)  09:57+4609:58+491m--21113.1688mSCRVetapalem, Andhra Pradesh
52/==/CJMChinnaganjam (3)  10:09+5210:10+521m--21125.5659mSCRChinna Ganjam, Andhra Pradesh
53/==/ANBAmmanabrolu (3)  10:23+5310:24+531m--21139.64516mSCRAmmanabrolu, Andhra Pradesh
54/==/OGLOngole (3)X  10:44+4810:45+501m321154.56212mSCROngole, Andhra Pradesh
55/==/TNRTanguturu (3)X  11:03+4911:04+491m--21173.27210mSCRTanguturu, Andhra Pradesh
56/==/SKMSingarayakonda (2)X  11:12+4911:13+531m221182.86326mSCRSingarayakonda, Andhra Pradesh
57/==/KVZKavali (4)XO  11:49+811:50+81m221220.57021mSCRKavali, Andhra Pradesh
58/==/BTTRBitragunta (2)  12:04-12:05-1m221237.07615mSCRBitragunta, Andhra Pradesh
59/==/NLRNellore (4)X  12:32+1:0912:33+1:091m321271.32721mSCRNellore, Andhra Pradesh
60/==/GDRGudur Junction (3)X  14:00+714:05+85m121309.86819mSCRGudur, Andhra Pradesh
61/==/VDDVendodu (2)X  14:22+2514:23+251m--21329.07655mSCRNellore, Andhra Pradesh
62/==/VKIVenkatagiri (3)X  14:36+2414:37+241m221345.56177mSCRNellore District, Andhra Pradesh
63/==/KHTSri Kalahasti (2)X  15:01+4515:02+461m121370.03068mSCRChittoor District, Andhra Pradesh
64/==/RURenigunta Junction (5)  15:48+1:5415:50+1:552m--21393.213113mSCRChittoor District, Andhra Pradesh
65/==/TPTYTirupati Main (5)•  16:35+19-421403.1-150mSCRChittoor Distt, Andhra Pradesh
Scroll to Top
Scroll to Bottom